createdAt,value
2017-07-23T03:31:54.354Z,59.20
2017-07-23T03:34:21.990Z,59.10
2017-07-23T03:36:49.638Z,59.00
2017-07-23T03:39:17.283Z,59.40
2017-07-23T03:41:45.721Z,59.70
2017-07-23T03:44:13.371Z,59.80
2017-07-23T03:46:42.184Z,60.60
2017-07-23T03:49:09.834Z,61.70
2017-07-23T03:51:37.493Z,61.90
2017-07-23T03:54:05.136Z,61.30
2017-07-23T03:56:33.006Z,60.50
2017-07-23T03:59:02.376Z,60.20
2017-07-23T04:01:30.809Z,60.10
2017-07-23T04:03:58.475Z,60.10
2017-07-23T04:06:26.132Z,60.10
2017-07-23T04:08:53.810Z,60.70
2017-07-23T04:11:21.483Z,60.10
2017-07-23T04:13:49.108Z,60.30
2017-07-23T04:16:16.771Z,60.20
2017-07-23T04:18:44.413Z,60.10
2017-07-23T04:21:12.090Z,59.70
2017-07-23T04:23:39.732Z,60.00
2017-07-23T04:26:07.993Z,60.50
2017-07-23T04:28:35.635Z,61.40
2017-07-23T04:31:03.303Z,61.40
2017-07-23T04:33:30.978Z,62.30
2017-07-23T04:35:58.641Z,63.10
2017-07-23T04:38:26.332Z,62.40
2017-07-23T04:40:53.970Z,62.10
2017-07-23T04:43:21.624Z,61.90
2017-07-23T04:45:49.274Z,61.70
2017-07-23T04:48:18.062Z,60.90
2017-07-23T04:50:46.455Z,59.60
2017-07-23T04:53:14.852Z,60.40
2017-07-23T04:55:42.507Z,60.40
2017-07-23T04:58:10.159Z,60.90
2017-07-23T05:00:37.813Z,60.60
2017-07-23T05:03:06.262Z,60.10
2017-07-23T05:05:34.193Z,60.10
2017-07-23T05:08:01.877Z,59.90
2017-07-23T05:10:29.605Z,59.30
2017-07-23T05:12:57.265Z,59.30
2017-07-23T05:15:25.416Z,59.50
2017-07-23T05:17:53.910Z,58.30
2017-07-23T05:20:21.639Z,58.20
2017-07-23T05:22:49.315Z,58.30
2017-07-23T05:25:17.815Z,59.60
2017-07-23T05:27:45.508Z,59.00
2017-07-23T05:30:13.141Z,59.60
2017-07-23T05:32:41.102Z,59.30
2017-07-23T05:35:09.558Z,59.80
2017-07-23T05:37:37.273Z,59.80
2017-07-23T05:40:05.824Z,59.60
2017-07-23T05:42:34.432Z,59.90
2017-07-23T05:45:02.815Z,59.90
2017-07-23T05:47:30.629Z,60.70
2017-07-23T05:49:58.620Z,60.10
2017-07-23T05:52:27.436Z,59.60
2017-07-23T05:54:55.121Z,59.60
2017-07-23T05:57:22.979Z,59.80
2017-07-23T05:59:51.072Z,59.90
2017-07-23T06:02:18.799Z,60.30
2017-07-23T06:04:46.525Z,60.30
2017-07-23T06:07:14.758Z,60.70
2017-07-23T06:09:42.420Z,61.10
2017-07-23T06:12:10.144Z,60.10
2017-07-23T06:14:38.918Z,59.40
2017-07-23T06:17:06.602Z,59.30
2017-07-23T06:19:34.272Z,59.40
2017-07-23T06:22:02.254Z,58.80
2017-07-23T06:24:29.984Z,58.10
2017-07-23T06:26:58.473Z,59.40
2017-07-23T06:29:27.284Z,60.70
2017-07-23T06:31:54.948Z,60.70
2017-07-23T06:34:23.475Z,61.70
2017-07-23T06:36:51.465Z,61.90
2017-07-23T06:39:19.882Z,60.30
2017-07-23T06:41:47.524Z,60.30
2017-07-23T06:44:15.604Z,60.10
2017-07-23T06:46:43.243Z,59.30
2017-07-23T06:49:11.658Z,59.40
2017-07-23T06:51:39.640Z,59.40
2017-07-23T06:54:07.287Z,59.30
2017-07-23T06:56:34.936Z,59.20
2017-07-23T06:59:03.007Z,59.00
2017-07-23T07:01:30.645Z,59.40
2017-07-23T07:03:59.042Z,59.40
2017-07-23T07:06:27.009Z,59.30
2017-07-23T07:08:54.665Z,59.10
2017-07-23T07:11:23.088Z,59.10
2017-07-23T07:13:50.765Z,59.00
2017-07-23T07:16:18.477Z,59.10
2017-07-23T07:18:46.513Z,59.40
2017-07-23T07:21:14.180Z,60.90
2017-07-23T07:23:41.870Z,60.50
2017-07-23T07:26:10.343Z,59.50
2017-07-23T07:28:38.795Z,58.00
2017-07-23T07:31:06.517Z,58.00
2017-07-23T07:33:34.196Z,58.30
2017-07-23T07:36:02.217Z,58.70
2017-07-23T07:38:30.639Z,57.50
2017-07-23T07:40:58.282Z,57.50
2017-07-23T07:43:25.970Z,56.30
2017-07-23T07:45:53.602Z,56.80
2017-07-23T07:48:21.419Z,57.90
2017-07-23T07:50:49.063Z,58.70
2017-07-23T07:53:16.730Z,59.00
2017-07-23T07:55:44.384Z,60.40
2017-07-23T07:58:12.041Z,59.70
2017-07-23T08:00:39.694Z,59.90
2017-07-23T08:03:07.723Z,61.20
2017-07-23T08:05:36.167Z,63.50
2017-07-23T08:08:03.811Z,63.00
2017-07-23T08:10:31.569Z,63.30
2017-07-23T08:12:59.238Z,64.00
2017-07-23T08:15:26.955Z,59.70
2017-07-23T08:17:54.671Z,62.20
2017-07-23T08:20:22.436Z,62.00
2017-07-23T08:22:50.097Z,62.20
2017-07-23T08:25:17.761Z,65.20
2017-07-23T08:27:45.409Z,65.60
2017-07-23T08:30:13.053Z,64.50
2017-07-23T08:32:40.715Z,61.00
2017-07-23T08:35:08.387Z,60.00
2017-07-23T08:37:36.050Z,59.20
2017-07-23T08:40:03.696Z,59.90
2017-07-23T08:42:31.768Z,59.00
2017-07-23T08:44:59.492Z,59.50
2017-07-23T08:47:27.167Z,60.00
2017-07-23T08:49:55.312Z,59.40
2017-07-23T08:52:22.975Z,57.30
2017-07-23T08:54:50.645Z,57.50
2017-07-23T08:57:18.631Z,58.80
2017-07-23T08:59:46.337Z,59.40
2017-07-23T09:02:14.014Z,59.40
2017-07-23T09:04:41.681Z,59.10
2017-07-23T09:07:09.337Z,56.90
2017-07-23T09:09:37.025Z,54.90
2017-07-23T09:12:04.698Z,53.80
2017-07-23T09:14:32.360Z,52.40
2017-07-23T09:17:00.016Z,52.40
2017-07-23T09:19:27.694Z,52.80
2017-07-23T09:21:56.268Z,53.40
2017-07-23T09:24:24.383Z,53.40
2017-07-23T09:26:52.035Z,52.80
2017-07-23T09:29:19.686Z,53.70
2017-07-23T09:31:48.212Z,53.30
2017-07-23T09:34:15.887Z,53.30
2017-07-23T09:36:43.576Z,52.30
2017-07-23T09:39:12.002Z,47.50
2017-07-23T09:41:39.689Z,47.40
2017-07-23T09:44:07.362Z,44.10
2017-07-23T09:46:35.108Z,42.60
2017-07-23T09:49:02.747Z,40.20
2017-07-23T09:51:30.797Z,40.10
2017-07-23T09:53:59.212Z,44.10
2017-07-23T09:56:26.890Z,44.10
2017-07-23T09:58:55.375Z,45.20
2017-07-23T10:01:23.028Z,45.20
2017-07-23T10:03:50.735Z,43.00
2017-07-23T10:06:19.142Z,42.00
2017-07-23T10:08:46.861Z,42.00
2017-07-23T10:11:14.513Z,41.10
2017-07-23T10:13:42.190Z,40.90
2017-07-23T10:16:10.146Z,38.70
2017-07-23T10:18:37.820Z,35.60
2017-07-23T10:21:06.268Z,36.00
2017-07-23T10:23:33.945Z,35.90
2017-07-23T10:26:01.830Z,35.20
2017-07-23T10:28:29.511Z,36.40
2017-07-23T10:30:58.267Z,41.00
2017-07-23T10:33:25.943Z,41.00
2017-07-23T10:35:53.595Z,42.50
2017-07-23T10:38:21.282Z,42.90
2017-07-23T10:40:48.984Z,40.90
2017-07-23T10:43:16.724Z,40.00
2017-07-23T10:45:47.941Z,38.20
2017-07-23T10:48:16.215Z,37.30
2017-07-23T10:50:48.026Z,34.20
2017-07-23T10:53:15.969Z,37.60
2017-07-23T10:55:44.628Z,40.80
2017-07-23T10:58:13.744Z,40.90
2017-07-23T11:00:41.466Z,40.60
2017-07-23T11:03:09.121Z,39.00
2017-07-23T11:05:36.794Z,41.10
2017-07-23T11:08:04.430Z,41.60
2017-07-23T11:10:32.116Z,41.50
2017-07-23T11:12:59.942Z,41.20
2017-07-23T11:15:27.634Z,39.50
2017-07-23T11:17:55.330Z,40.90
2017-07-23T11:20:25.311Z,42.00
2017-07-23T11:22:53.804Z,43.80
2017-07-23T11:25:21.462Z,43.20
2017-07-23T11:27:49.125Z,43.80
2017-07-23T11:30:16.777Z,43.60
2017-07-23T11:32:44.454Z,45.00
2017-07-23T11:35:12.128Z,45.80
2017-07-23T11:37:58.605Z,46.40
2017-07-23T11:40:26.291Z,48.10
2017-07-23T11:42:53.957Z,49.30
2017-07-23T11:45:21.609Z,50.00
2017-07-23T11:47:49.630Z,50.90
2017-07-23T11:50:17.565Z,51.50
2017-07-23T11:52:45.220Z,50.90
2017-07-23T11:55:12.977Z,50.40
2017-07-23T11:57:40.625Z,50.90
2017-07-23T12:00:08.315Z,49.00
2017-07-23T12:02:36.770Z,47.20
2017-07-23T12:05:04.529Z,47.20
2017-07-23T12:07:32.216Z,46.70
2017-07-23T12:10:00.345Z,45.10
2017-07-23T12:12:27.995Z,43.70
2017-07-23T12:14:55.668Z,41.40
2017-07-23T12:17:23.662Z,39.80
2017-07-23T12:19:51.368Z,39.60
2017-07-23T12:22:19.812Z,39.90
2017-07-23T12:24:47.823Z,39.90
2017-07-23T12:27:16.245Z,41.20
2017-07-23T12:29:43.907Z,41.20
2017-07-23T12:32:12.054Z,41.60
2017-07-23T12:34:39.717Z,41.70
2017-07-23T12:37:07.385Z,41.50
2017-07-23T12:39:35.056Z,41.10
2017-07-23T12:42:02.733Z,39.00
2017-07-23T12:44:30.421Z,39.90
2017-07-23T12:46:58.147Z,39.70
2017-07-23T12:49:26.206Z,39.60
2017-07-23T12:51:53.870Z,36.60
2017-07-23T12:54:21.587Z,39.10
2017-07-23T12:56:49.233Z,38.40
2017-07-23T12:59:16.872Z,40.10
2017-07-23T13:01:44.560Z,40.80
2017-07-23T13:04:12.211Z,39.70
2017-07-23T13:06:40.221Z,39.40
2017-07-23T13:09:07.865Z,39.20
2017-07-23T13:11:35.525Z,39.40
2017-07-23T13:14:03.205Z,40.00
2017-07-23T13:16:31.636Z,41.50
2017-07-23T13:18:59.336Z,41.50
2017-07-23T13:21:27.740Z,40.30
2017-07-23T13:23:55.429Z,40.30
2017-07-23T13:26:23.087Z,40.50
2017-07-23T13:28:51.160Z,41.20
2017-07-23T13:31:18.830Z,39.80
2017-07-23T13:33:46.496Z,39.90
2017-07-23T13:36:14.170Z,39.90
2017-07-23T13:38:41.857Z,39.00
2017-07-23T13:41:09.533Z,40.10
2017-07-23T13:43:37.964Z,39.80
2017-07-23T13:46:05.667Z,39.80
2017-07-23T13:48:34.101Z,40.40
2017-07-23T13:51:01.763Z,40.10
2017-07-23T13:53:29.437Z,40.10
2017-07-23T13:55:57.453Z,39.30
2017-07-23T13:58:26.172Z,40.70
2017-07-23T14:00:53.888Z,40.70
2017-07-23T14:03:21.537Z,40.50
2017-07-23T14:05:49.226Z,40.90
2017-07-23T14:08:18.019Z,40.30
2017-07-23T14:10:45.667Z,40.30
2017-07-23T14:13:14.269Z,39.40
2017-07-23T14:15:41.944Z,39.30
2017-07-23T14:18:09.654Z,40.70
2017-07-23T14:20:37.322Z,40.00
2017-07-23T14:23:04.975Z,41.40
2017-07-23T14:25:32.713Z,41.30
2017-07-23T14:28:00.361Z,40.60
2017-07-23T14:30:28.443Z,41.20
2017-07-23T14:32:56.130Z,41.60
2017-07-23T14:35:23.790Z,41.20
2017-07-23T14:37:51.582Z,42.20
2017-07-23T14:40:20.862Z,42.60
2017-07-23T14:42:48.559Z,42.60
2017-07-23T14:45:17.052Z,43.70
2017-07-23T14:47:44.743Z,43.60
2017-07-23T14:50:12.415Z,42.80
2017-07-23T14:52:40.457Z,42.50
2017-07-23T14:55:08.232Z,42.90
2017-07-23T14:57:36.278Z,42.90
2017-07-23T15:00:03.930Z,41.70
2017-07-23T15:02:32.364Z,40.70
2017-07-23T15:05:00.046Z,40.60
2017-07-23T15:07:27.699Z,39.60
2017-07-23T15:09:55.561Z,41.10
2017-07-23T15:12:23.751Z,40.70
2017-07-23T15:14:53.059Z,40.20
2017-07-23T15:17:20.727Z,40.20
2017-07-23T15:19:49.156Z,41.50
2017-07-23T15:22:17.199Z,41.40
2017-07-23T15:24:45.482Z,41.20
2017-07-23T15:27:13.166Z,41.40
2017-07-23T15:29:41.164Z,41.90
2017-07-23T15:32:09.050Z,41.20
2017-07-23T15:34:36.685Z,41.10
2017-07-23T15:37:04.404Z,40.40
2017-07-23T15:39:32.094Z,39.80
2017-07-23T15:41:59.766Z,39.20
2017-07-23T15:44:27.404Z,38.80
2017-07-23T15:46:55.112Z,39.00
2017-07-23T15:49:24.676Z,39.90
2017-07-23T15:51:52.832Z,39.80
2017-07-23T15:54:20.474Z,39.70
2017-07-23T15:56:48.907Z,38.90
2017-07-23T15:59:16.572Z,38.80
2017-07-23T16:01:44.275Z,39.50
2017-07-23T16:04:12.728Z,40.80
2017-07-23T16:06:40.746Z,40.80
2017-07-23T16:09:08.439Z,41.30
2017-07-23T16:11:36.070Z,40.70
2017-07-23T16:14:04.128Z,40.40
2017-07-23T16:16:32.536Z,41.70
2017-07-23T16:19:00.208Z,41.60
2017-07-23T16:21:27.884Z,42.30
2017-07-23T16:23:55.552Z,42.70
2017-07-23T16:26:23.250Z,42.90
2017-07-23T16:28:50.904Z,42.60
2017-07-23T16:31:18.911Z,42.40
2017-07-23T16:33:46.597Z,42.00
2017-07-23T16:36:14.260Z,41.00
2017-07-23T16:38:41.937Z,40.90
2017-07-23T16:41:09.595Z,40.90
2017-07-23T16:43:37.421Z,40.50
2017-07-23T16:46:05.095Z,40.70
2017-07-23T16:48:33.179Z,39.80
2017-07-23T16:51:00.943Z,39.60
2017-07-23T16:53:28.644Z,40.00
2017-07-23T16:55:56.624Z,40.10
2017-07-23T16:58:24.289Z,40.30
2017-07-23T17:00:52.708Z,39.90
2017-07-23T17:03:20.720Z,39.60
2017-07-23T17:05:48.562Z,40.00
2017-07-23T17:08:16.252Z,39.80
2017-07-23T17:10:45.019Z,39.60
2017-07-23T17:13:12.670Z,39.50
2017-07-23T17:15:40.338Z,39.50
2017-07-23T17:18:08.098Z,40.00
2017-07-23T17:20:35.795Z,40.40
2017-07-23T17:23:03.463Z,40.70
2017-07-23T17:25:31.113Z,40.50
2017-07-23T17:27:58.791Z,40.50
2017-07-23T17:30:27.201Z,41.70
2017-07-23T17:32:55.258Z,41.30
2017-07-23T17:35:22.976Z,41.10
2017-07-23T17:37:50.648Z,41.20
2017-07-23T17:40:18.433Z,41.40
2017-07-23T17:42:46.873Z,41.80
2017-07-23T17:45:14.917Z,41.70
2017-07-23T17:47:42.575Z,41.70
2017-07-23T17:50:10.242Z,42.40
2017-07-23T17:52:38.358Z,41.90
2017-07-23T17:55:06.031Z,42.30
2017-07-23T17:57:33.688Z,41.70
2017-07-23T18:00:02.337Z,41.70
2017-07-23T18:02:30.005Z,42.30
2017-07-23T18:04:57.714Z,42.30
2017-07-23T18:07:26.647Z,42.50
2017-07-23T18:09:54.308Z,42.50
2017-07-23T18:12:22.395Z,41.80
2017-07-23T18:14:50.974Z,42.00
2017-07-23T18:17:18.682Z,41.90
2017-07-23T18:19:47.172Z,42.30
2017-07-23T18:22:15.918Z,42.30
2017-07-23T18:24:43.672Z,42.30
2017-07-23T18:27:11.386Z,42.40
2017-07-23T18:29:40.207Z,41.80
2017-07-23T18:32:07.878Z,41.80
2017-07-23T18:34:35.551Z,42.00
2017-07-23T18:37:03.586Z,41.80
2017-07-23T18:39:31.667Z,41.60
2017-07-23T18:42:00.204Z,42.00
2017-07-23T18:44:27.907Z,41.80
2017-07-23T18:46:55.623Z,41.90
2017-07-23T18:49:23.389Z,42.00
2017-07-23T19:04:51.134Z,42.00
2017-07-23T19:07:18.820Z,44.20
2017-07-23T19:09:47.325Z,44.30
2017-07-23T19:12:15.108Z,43.60
2017-07-23T19:14:42.914Z,43.20
2017-07-23T19:17:10.614Z,42.90
2017-07-23T19:19:38.640Z,43.30
2017-07-23T19:22:06.890Z,43.30
2017-07-23T19:24:34.982Z,43.60
2017-07-23T19:27:02.693Z,43.20
2017-07-23T19:29:30.493Z,42.40
2017-07-23T19:31:58.207Z,42.70
2017-07-23T19:34:27.298Z,43.00
2017-07-23T19:36:54.982Z,43.00
2017-07-23T19:39:22.724Z,43.10
2017-07-23T19:41:51.190Z,43.20
2017-07-23T19:44:18.852Z,43.10
2017-07-23T19:46:47.954Z,43.40
2017-07-23T19:49:16.797Z,43.50
2017-07-23T19:51:44.792Z,43.60
2017-07-23T19:54:12.486Z,43.50
2017-07-23T19:56:41.036Z,44.00
2017-07-23T19:59:08.710Z,43.90
2017-07-23T20:01:36.699Z,44.20
2017-07-23T20:04:05.179Z,44.10
2017-07-23T20:06:33.865Z,45.10
2017-07-23T20:09:01.898Z,44.60
2017-07-23T20:11:29.576Z,44.70
2017-07-23T20:13:58.060Z,44.90
2017-07-23T20:16:25.872Z,45.30
2017-07-23T20:18:53.694Z,45.50
2017-07-23T20:21:21.387Z,45.50
2017-07-23T20:23:49.045Z,45.60
2017-07-23T20:26:17.479Z,46.10
2017-07-23T20:28:45.138Z,46.00
2017-07-23T20:31:13.169Z,46.00
2017-07-23T20:33:40.845Z,46.10
2017-07-23T20:36:08.624Z,46.20
2017-07-23T20:38:36.344Z,46.40
2017-07-23T20:41:04.795Z,46.50
2017-07-23T20:43:32.505Z,46.50
2017-07-23T20:46:00.178Z,46.90
2017-07-23T20:48:27.848Z,47.50
2017-07-23T20:50:55.518Z,47.00
2017-07-23T20:53:23.698Z,47.50
2017-07-23T20:55:51.470Z,47.20
2017-07-23T20:58:19.127Z,47.10
2017-07-23T21:00:46.864Z,47.40
2017-07-23T21:03:14.839Z,47.70
2017-07-23T21:05:42.527Z,47.80
2017-07-23T21:08:10.202Z,47.50
2017-07-23T21:10:38.222Z,47.60
2017-07-23T21:13:05.945Z,48.20
2017-07-23T21:15:33.635Z,48.00
2017-07-23T21:18:01.372Z,48.20
2017-07-23T21:20:29.188Z,48.70
2017-07-23T21:22:56.997Z,48.10
2017-07-23T21:25:24.642Z,47.60
2017-07-23T21:27:52.322Z,48.20
2017-07-23T21:30:20.097Z,49.20
2017-07-23T21:32:48.200Z,49.20
2017-07-23T21:35:15.931Z,49.20
2017-07-23T21:37:43.579Z,48.00
2017-07-23T21:40:11.241Z,48.30
2017-07-23T21:42:38.935Z,48.20
2017-07-23T21:45:07.367Z,47.80
2017-07-23T21:47:35.207Z,47.80
2017-07-23T21:50:02.935Z,47.60
2017-07-23T21:52:30.729Z,47.20
2017-07-23T21:54:58.396Z,47.50
2017-07-23T21:57:26.150Z,47.90
2017-07-23T21:59:53.811Z,48.00
2017-07-23T22:02:21.463Z,48.30
2017-07-23T22:04:49.994Z,48.40
2017-07-23T22:07:17.659Z,48.40
2017-07-23T22:09:45.310Z,48.80
2017-07-23T22:12:13.444Z,49.20
2017-07-23T22:14:41.846Z,49.00
2017-07-23T22:17:09.489Z,49.00
2017-07-23T22:19:38.221Z,48.70
2017-07-23T22:22:05.878Z,48.60
2017-07-23T22:24:33.545Z,48.70
2017-07-23T22:27:01.554Z,48.80
2017-07-23T22:29:29.972Z,49.40
